Comby, Texas
Current Conditions -  °F | °C
As of 9:52 AM on Thursday 27 Nov 2014 (Local Time) from KHRL Reporting Station
Clear Clear  
Wind Chill: 68°   Ceiling: Unl
Heat Index: 68°   Visibility: 10mi
Dew Point: 52°   Wind: 8mph
Humidity: 56%   Direction: 200°SSW
Pressure: 30.43"   Gusts: NA
Location:  26.2542°N, 97.7326°W
Report Text: KHRL 271552Z 20007KT 10SM CLR 20/11 A3043 RMK AO2 SLP303 T02000111 $
Loading
Personal Weather Stations






























Interactive Weather Map New forecast layout! Learn more

10-Day Weather Forecast

Advertisements
Track Severe Weather on mobile